Juneau International Airport Juneau US
ICAO: PAJN
IATA: JNU
Category: Medium
Scheduled Services:

Elevation: 21 ft
TransAlt. 18000 ft.

Airport Communications:
ATIS:135.2
TWEB:114
ANCHORAGE CNTR:133.9
CTAF:118.7
RDO:122.2
GND:121.9
RDO:122.15
NAT GD OPS:124.65
TWR:118.7
UNICOM:122.95

PAJN Zoom In..

Runways:

(A) RW 08 length 8457 ft width 150 ft
---- / hdg 85

(B) RW 26 length 8457 ft width 150 ft
---- / hdg 265

Location; PAJN
Day. 23 / Time. 07.53 Zulu
* Altimeter: 30.24
* Temperature: 15° c. 59°f.
* Wind from: 080° Speed 06 kn.
Dewpoint: 12° c.
Visibility: 10 Statute Miles.
Clouds: Few 3000 ft.

PAJN 230753Z 08006KT 10SM FEW300 15/12 A3024 RMK AO2 SLP241 T01500122


Wind From 080°
Speed 06 kn.

 
 
jpsmedia.com for Web Design worldairports.se 2018   terms of use